Time;durP1;ratioP1;P1;durP2;ratioP2;P2;SDS_P1;SDS_P2;PMS_P1;PMS_P2;Temp;Humidity;BMP_temperature;BMP_pressure;BME280_temperature;BME280_humidity;BME280_pressure;Samples;Min_cycle;Max_cycle;Signal;HPM_P1;HPM_P2
2023/04/05 00:00:53;;;;;;;5.20;2.70;;;5.00;99.90;;;;;;5058681;28;20025;-69
2023/04/05 00:03:18;;;;;;;5.15;3.00;;;4.90;99.90;;;;;;5057871;28;20025;-74
2023/04/05 00:05:44;;;;;;;4.80;2.33;;;4.80;99.90;;;;;;5059096;28;20025;-74
2023/04/05 00:08:22;;;;;;;4.50;2.40;;;4.90;99.90;;;;;;5058120;28;20025;-74
2023/04/05 00:10:48;;;;;;;5.07;2.17;;;4.90;99.90;;;;;;5057295;28;20028;-74
2023/04/05 00:13:14;;;;;;;3.72;2.20;;;4.90;99.90;;;;;;5058623;28;20025;-74
2023/04/05 00:15:40;;;;;;;2.40;2.17;;;4.90;99.90;;;;;;5058721;28;20025;-74
2023/04/05 00:18:06;;;;;;;3.47;2.53;;;4.80;99.90;;;;;;5058663;28;20028;-74
2023/04/05 00:20:32;;;;;;;3.47;2.30;;;4.70;99.90;;;;;;5058549;28;20040;-74
2023/04/05 00:22:58;;;;;;;3.78;2.55;;;4.80;99.90;;;;;;5059514;28;20031;-76
2023/04/05 00:25:25;;;;;;;5.95;2.42;;;4.60;99.90;;;;;;5059193;28;20031;-74
2023/04/05 00:27:50;;;;;;;4.07;2.20;;;4.60;99.90;;;;;;5057818;28;20025;-68
2023/04/05 00:30:19;;;;;;;7.55;2.85;;;4.60;99.90;;;;;;5057846;28;20025;-67
2023/04/05 00:32:49;;;;;;;6.60;2.75;;;4.40;99.90;;;;;;5057178;28;20067;-66
2023/04/05 00:35:15;;;;;;;4.53;2.53;;;4.60;99.90;;;;;;5058435;28;20031;-75
2023/04/05 00:37:41;;;;;;;3.65;2.28;;;4.60;99.90;;;;;;5057193;28;20033;-74
2023/04/05 00:40:07;;;;;;;5.60;2.72;;;4.40;99.90;;;;;;5057994;28;20039;-75
2023/04/05 00:42:33;;;;;;;4.88;2.80;;;4.40;99.90;;;;;;5058148;28;20078;-74
2023/04/05 00:44:59;;;;;;;8.38;2.95;;;4.50;99.90;;;;;;5057456;28;20025;-74
2023/04/05 00:47:25;;;;;;;6.03;3.13;;;4.50;99.90;;;;;;5057172;28;20044;-74
2023/04/05 00:49:51;;;;;;;5.70;2.60;;;4.40;99.90;;;;;;5058117;28;20025;-74
2023/04/05 00:52:18;;;;;;;8.23;3.65;;;4.10;99.90;;;;;;5056995;28;20059;-70
2023/04/05 00:54:44;;;;;;;7.60;3.90;;;4.10;99.90;;;;;;5057183;28;20029;-70
2023/04/05 00:57:11;;;;;;;11.75;4.10;;;3.80;99.90;;;;;;5057014;28;20056;-70
2023/04/05 00:59:36;;;;;;;9.90;3.28;;;4.10;99.90;;;;;;5057108;28;20107;-69
2023/04/05 01:02:15;;;;;;;5.72;3.20;;;4.10;99.90;;;;;;5057711;28;20025;-70
2023/04/05 01:04:48;;;;;;;5.40;3.03;;;4.00;99.90;;;;;;5057850;28;20048;-69
2023/04/05 01:07:32;;;;;;;8.40;3.58;;;4.20;99.90;;;;;;5057610;28;20023;-70
2023/04/05 01:09:59;;;;;;;8.77;3.00;;;4.20;99.90;;;;;;5057546;28;20036;-70
2023/04/05 01:12:31;;;;;;;7.10;2.72;;;4.20;99.90;;;;;;5056432;28;20028;-70
2023/04/05 01:14:56;;;;;;;7.50;2.83;;;4.20;99.90;;;;;;5057584;28;20063;-69
2023/04/05 01:17:27;;;;;;;7.15;2.95;;;4.30;99.90;;;;;;5056386;28;20056;-70
2023/04/05 01:19:59;;;;;;;9.57;2.72;;;4.20;99.90;;;;;;5056209;28;20123;-69
2023/04/05 01:23:10;;;;;;;9.20;3.13;;;4.10;99.90;;;;;;5057094;28;20052;-69
2023/04/05 01:25:57;;;;;;;4.82;2.30;;;3.90;99.90;;;;;;5057180;28;20021;-69
2023/04/05 01:28:47;;;;;;;7.80;2.78;;;3.80;99.90;;;;;;5057125;28;20024;-70
2023/04/05 01:31:54;;;;;;;4.47;2.45;;;3.70;99.90;;;;;;5056201;28;20052;-69
2023/04/05 01:34:46;;;;;;;4.18;2.03;;;3.70;99.90;;;;;;5008983;28;20029;-70
2023/04/05 01:37:15;;;;;;;3.15;2.13;;;3.60;99.90;;;;;;5056900;28;20094;-70
2023/04/05 01:39:41;;;;;;;3.72;2.47;;;3.60;99.90;;;;;;5056070;28;20033;-69
2023/04/05 01:42:07;;;;;;;4.32;2.17;;;3.60;99.90;;;;;;5056398;28;20025;-69
2023/04/05 01:44:33;;;;;;;3.70;2.10;;;3.50;99.90;;;;;;5056558;28;20023;-69
2023/04/05 01:46:58;;;;;;;4.88;2.03;;;3.50;99.90;;;;;;5056919;28;20048;-70
2023/04/05 01:49:24;;;;;;;3.25;2.03;;;3.60;99.90;;;;;;5056070;28;20029;-70
2023/04/05 01:51:49;;;;;;;6.45;2.10;;;3.70;99.90;;;;;;5057156;28;20060;-70
2023/04/05 01:54:15;;;;;;;7.63;2.25;;;3.80;99.90;;;;;;5056871;28;20075;-70
2023/04/05 01:56:41;;;;;;;3.97;2.33;;;3.90;99.90;;;;;;5056880;28;20048;-66
2023/04/05 01:59:06;;;;;;;4.13;2.25;;;3.90;99.90;;;;;;5055923;28;20090;-67
2023/04/05 02:01:32;;;;;;;4.05;1.85;;;3.90;99.90;;;;;;5056030;28;20025;-66
2023/04/05 02:03:57;;;;;;;5.18;2.22;;;3.80;99.90;;;;;;5056156;28;20033;-67
2023/04/05 02:06:23;;;;;;;5.10;2.28;;;3.90;99.90;;;;;;5055830;28;20025;-67
2023/04/05 02:08:48;;;;;;;3.72;2.30;;;3.90;99.90;;;;;;5055759;28;20028;-70
2023/04/05 02:11:14;;;;;;;3.67;2.42;;;3.80;99.90;;;;;;5055752;28;20028;-70
2023/04/05 02:13:39;;;;;;;5.25;2.58;;;3.50;99.90;;;;;;5055882;28;20021;-69
2023/04/05 02:16:05;;;;;;;4.45;2.65;;;3.30;99.90;;;;;;5056132;28;20025;-69
2023/04/05 02:18:31;;;;;;;4.90;2.50;;;3.30;99.90;;;;;;5056722;28;20037;-70
2023/04/05 02:21:04;;;;;;;5.50;2.63;;;3.20;99.90;;;;;;5056559;28;20029;-70
2023/04/05 02:23:31;;;;;;;6.03;2.33;;;3.30;99.90;;;;;;5057080;28;20073;-70
2023/04/05 02:25:57;;;;;;;2.75;1.88;;;3.30;99.90;;;;;;5056504;28;20032;-70
2023/04/05 02:28:23;;;;;;;3.20;2.17;;;3.50;99.90;;;;;;5055884;28;20057;-70
2023/04/05 02:30:49;;;;;;;7.13;2.38;;;3.50;99.90;;;;;;5055650;28;20028;-70
2023/04/05 02:33:14;;;;;;;6.13;3.60;;;3.60;99.90;;;;;;5058634;28;20021;-70
2023/04/05 02:35:40;;;;;;;5.25;2.22;;;3.50;99.90;;;;;;5059689;28;20032;-75
2023/04/05 02:38:06;;;;;;;5.20;2.22;;;3.50;99.90;;;;;;5060225;28;20037;-70
2023/04/05 02:40:32;;;;;;;3.80;2.40;;;3.30;99.90;;;;;;5060721;28;20028;-70
2023/04/05 02:42:57;;;;;;;5.43;3.10;;;3.10;99.90;;;;;;5059586;28;20063;-69
2023/04/05 02:45:23;;;;;;;3.42;2.30;;;3.00;99.90;;;;;;5060054;28;20044;-69
2023/04/05 02:47:49;;;;;;;4.30;2.63;;;2.90;99.90;;;;;;5059275;28;20028;-69
2023/04/05 02:50:19;;;;;;;2.42;2.00;;;3.00;99.90;;;;;;5059411;28;20024;-69
2023/04/05 02:52:45;;;;;;;4.32;2.35;;;2.80;99.90;;;;;;5059319;28;20057;-69
2023/04/05 02:55:11;;;;;;;4.88;2.10;;;2.80;99.90;;;;;;5060209;28;20028;-70
2023/04/05 02:57:36;;;;;;;4.50;2.45;;;2.90;99.90;;;;;;5059720;28;20025;-70
2023/04/05 03:00:03;;;;;;;3.63;2.38;;;2.90;99.90;;;;;;5058992;28;20036;-70
2023/04/05 03:02:30;;;;;;;5.95;2.42;;;2.90;99.90;;;;;;5059806;28;20086;-70
2023/04/05 03:04:55;;;;;;;5.00;2.00;;;3.00;99.90;;;;;;5059919;28;20025;-70
2023/04/05 03:07:24;;;;;;;6.25;2.92;;;3.00;99.90;;;;;;5059957;28;20027;-70
2023/04/05 03:09:50;;;;;;;5.05;2.22;;;3.10;99.90;;;;;;5059218;28;20045;-69
2023/04/05 03:12:15;;;;;;;6.85;2.13;;;3.00;99.90;;;;;;5058888;28;20024;-69
2023/04/05 03:14:41;;;;;;;5.53;2.40;;;2.90;99.90;;;;;;5058737;28;20049;-72
2023/04/05 03:17:07;;;;;;;6.28;2.25;;;2.90;99.90;;;;;;5059616;28;20017;-70
2023/04/05 03:19:34;;;;;;;4.68;2.00;;;2.80;99.90;;;;;;5059655;28;20035;-69
2023/04/05 03:22:00;;;;;;;5.45;2.92;;;2.70;99.90;;;;;;5058548;28;20045;-69
2023/04/05 03:24:25;;;;;;;4.07;2.08;;;2.40;99.90;;;;;;5059948;28;20022;-71
2023/04/05 03:26:51;;;;;;;3.28;2.00;;;2.30;99.90;;;;;;5059148;28;20025;-69
2023/04/05 03:29:17;;;;;;;4.40;1.88;;;2.30;99.90;;;;;;5058421;28;20025;-71
2023/04/05 03:31:44;;;;;;;8.80;2.10;;;2.40;99.90;;;;;;5058302;28;20120;-69
2023/04/05 03:34:09;;;;;;;3.83;2.28;;;2.50;99.90;;;;;;5058262;28;20032;-69
2023/04/05 03:36:41;;;;;;;6.88;2.60;;;2.50;99.90;;;;;;5057965;28;20025;-69
2023/04/05 03:39:09;;;;;;;3.40;2.22;;;2.60;99.90;;;;;;5059273;28;20040;-70
2023/04/05 03:41:34;;;;;;;4.15;2.50;;;2.70;99.90;;;;;;5058209;28;20036;-70
2023/04/05 03:44:00;;;;;;;4.28;2.67;;;2.70;99.90;;;;;;5057266;28;20109;-74
2023/04/05 03:46:25;;;;;;;6.25;2.55;;;2.60;99.90;;;;;;5058355;28;20032;-75
2023/04/05 03:48:51;;;;;;;5.93;2.67;;;2.70;99.90;;;;;;5058348;28;20032;-75
2023/04/05 03:51:17;;;;;;;4.95;2.45;;;2.70;99.90;;;;;;5059174;28;20104;-74
2023/04/05 03:53:43;;;;;;;4.57;2.45;;;2.60;99.90;;;;;;5058308;28;20043;-75
2023/04/05 03:56:09;;;;;;;7.28;2.80;;;2.50;99.90;;;;;;5058308;28;20029;-70
2023/04/05 03:58:35;;;;;;;11.73;3.10;;;2.50;99.90;;;;;;5057971;28;20063;-69
2023/04/05 04:01:01;;;;;;;4.70;2.38;;;2.40;99.90;;;;;;5057841;28;20032;-70
2023/04/05 04:03:27;;;;;;;7.00;2.60;;;2.40;99.90;;;;;;5058645;28;20029;-70
2023/04/05 04:05:53;;;;;;;3.70;2.28;;;2.40;99.90;;;;;;5058392;28;20080;-69
2023/04/05 04:08:19;;;;;;;4.45;2.45;;;2.50;99.90;;;;;;5058459;28;20032;-69
2023/04/05 04:10:44;;;;;;;7.40;2.53;;;2.40;99.90;;;;;;5058387;28;20025;-69
2023/04/05 04:13:10;;;;;;;3.85;2.28;;;2.30;99.90;;;;;;5058761;28;20039;-70
2023/04/05 04:15:35;;;;;;;3.83;2.35;;;2.30;99.90;;;;;;5058668;28;20031;-69
2023/04/05 04:18:01;;;;;;;6.03;2.13;;;2.30;99.90;;;;;;5057691;28;20025;-70
2023/04/05 04:20:27;;;;;;;5.60;2.40;;;2.40;99.90;;;;;;5057607;28;20031;-70
2023/04/05 04:22:52;;;;;;;7.28;3.05;;;2.40;99.90;;;;;;5058292;28;20055;-70
2023/04/05 04:25:19;;;;;;;8.07;2.47;;;2.30;99.90;;;;;;5057252;28;20033;-67
2023/04/05 04:27:45;;;;;;;6.30;2.70;;;2.20;99.90;;;;;;5057585;28;20017;-67
2023/04/05 04:30:14;;;;;;;7.60;2.92;;;2.20;99.90;;;;;;5058726;28;20025;-66
2023/04/05 04:32:50;;;;;;;6.05;2.60;;;2.20;99.90;;;;;;5057118;28;20017;-66
2023/04/05 04:35:23;;;;;;;5.57;2.72;;;2.20;99.90;;;;;;5058674;28;20039;-67
2023/04/05 04:38:00;;;;;;;5.03;2.40;;;2.20;99.90;;;;;;5057235;28;20041;-67
2023/04/05 04:40:40;;;;;;;8.38;2.15;;;2.20;99.90;;;;;;5058283;28;20167;-67
2023/04/05 04:43:16;;;;;;;4.63;2.53;;;2.30;99.90;;;;;;5057300;28;20052;-67
2023/04/05 04:45:45;;;;;;;2.72;2.08;;;2.20;99.90;;;;;;5057889;28;20032;-67
2023/04/05 04:48:12;;;;;;;3.10;2.05;;;2.30;99.90;;;;;;5056829;28;20029;-67
2023/04/05 04:50:39;;;;;;;7.95;2.75;;;2.40;99.90;;;;;;5057748;28;20025;-70
2023/04/05 04:53:05;;;;;;;4.13;2.22;;;2.40;99.90;;;;;;5057835;28;20092;-70
2023/04/05 04:55:32;;;;;;;5.25;2.38;;;2.30;99.90;;;;;;5057246;28;20025;-70
2023/04/05 04:57:58;;;;;;;4.55;2.70;;;2.30;99.90;;;;;;5057689;28;20036;-70
2023/04/05 05:00:23;;;;;;;5.90;3.38;;;2.20;99.90;;;;;;5057482;28;20024;-70
2023/04/05 05:02:51;;;;;;;6.45;3.13;;;2.20;99.90;;;;;;5057485;28;20078;-70
2023/04/05 05:05:20;;;;;;;5.57;3.13;;;2.20;99.90;;;;;;5056640;28;20025;-70
2023/04/05 05:07:46;;;;;;;4.30;2.75;;;2.10;99.90;;;;;;5056726;28;20104;-70
2023/04/05 05:10:14;;;;;;;6.15;2.60;;;2.00;99.90;;;;;;5057476;28;20105;-70
2023/04/05 05:12:40;;;;;;;6.60;2.65;;;2.00;99.90;;;;;;5057694;28;20017;-70
2023/04/05 05:15:07;;;;;;;5.28;2.85;;;1.90;99.90;;;;;;5057603;28;20029;-70
2023/04/05 05:17:34;;;;;;;11.18;2.92;;;1.80;99.90;;;;;;5056196;28;20029;-70
2023/04/05 05:20:00;;;;;;;4.68;3.00;;;1.80;99.90;;;;;;5057116;28;20025;-75
2023/04/05 05:22:26;;;;;;;7.30;3.20;;;1.80;99.90;;;;;;5057134;28;20094;-75
2023/04/05 05:24:52;;;;;;;6.88;3.03;;;1.90;99.90;;;;;;5057846;28;20033;-75
2023/04/05 05:27:17;;;;;;;7.10;3.08;;;2.00;99.90;;;;;;5056580;28;20028;-75
2023/04/05 05:29:43;;;;;;;6.30;2.95;;;2.00;99.90;;;;;;5056630;28;20017;-75
2023/04/05 05:32:13;;;;;;;7.22;3.00;;;2.10;99.90;;;;;;5056939;28;20056;-75
2023/04/05 05:34:39;;;;;;;6.03;3.20;;;2.10;99.90;;;;;;5057678;28;20029;-75
2023/04/05 05:37:05;;;;;;;5.53;3.20;;;2.10;99.90;;;;;;5056523;28;20044;-75
2023/04/05 05:39:31;;;;;;;6.25;3.65;;;2.00;99.90;;;;;;5056711;28;20033;-75
2023/04/05 05:41:56;;;;;;;7.40;4.07;;;1.90;99.90;;;;;;5057124;28;20028;-70
2023/04/05 05:44:22;;;;;;;10.25;3.17;;;2.10;99.90;;;;;;5057205;28;20025;-70
2023/04/05 05:46:47;;;;;;;4.40;2.78;;;2.20;99.90;;;;;;5055761;28;20028;-70
2023/04/05 05:49:13;;;;;;;10.70;3.75;;;2.40;99.90;;;;;;5055885;28;20025;-70
2023/04/05 05:51:38;;;;;;;5.28;3.10;;;2.40;99.90;;;;;;5056426;28;20036;-70
2023/04/05 05:54:04;;;;;;;8.50;3.95;;;2.60;99.90;;;;;;5055852;28;20028;-67
2023/04/05 05:56:30;;;;;;;6.53;3.20;;;2.70;99.90;;;;;;5055760;28;20025;-68
2023/04/05 05:58:55;;;;;;;11.68;3.95;;;2.90;99.90;;;;;;5056137;28;20025;-68
2023/04/05 06:01:21;;;;;;;7.38;3.92;;;3.00;99.90;;;;;;5056728;28;20075;-67
2023/04/05 06:03:47;;;;;;;9.32;3.33;;;3.10;99.90;;;;;;5056741;28;20017;-68
2023/04/05 06:06:13;;;;;;;6.90;3.10;;;3.10;99.90;;;;;;5055717;28;20120;-70
2023/04/05 06:08:38;;;;;;;8.15;3.35;;;3.10;99.90;;;;;;5059112;28;20116;-70
2023/04/05 06:11:04;;;;;;;7.97;3.72;;;3.20;99.90;;;;;;5060899;28;20022;-71
2023/04/05 06:13:30;;;;;;;8.88;3.65;;;3.20;99.90;;;;;;5059760;28;20017;-71
2023/04/05 06:15:55;;;;;;;7.75;3.00;;;3.20;99.90;;;;;;5059919;28;20067;-71
2023/04/05 06:18:21;;;;;;;5.80;3.03;;;3.20;99.90;;;;;;5059638;28;20057;-70
2023/04/05 06:20:46;;;;;;;5.93;3.35;;;3.30;99.90;;;;;;5060292;28;20032;-71
2023/04/05 06:23:12;;;;;;;7.85;3.28;;;3.30;99.90;;;;;;5060890;28;20115;-70
2023/04/05 06:25:39;;;;;;;10.00;2.88;;;3.30;99.90;;;;;;5059782;28;20051;-68
2023/04/05 06:28:06;;;;;;;5.80;3.00;;;3.20;99.90;;;;;;5059569;28;20063;-68
2023/04/05 06:30:32;;;;;;;14.98;3.72;;;3.20;99.90;;;;;;5060353;28;20021;-68
2023/04/05 06:32:59;;;;;;;6.68;3.20;;;3.20;99.90;;;;;;5059715;28;20021;-68
2023/04/05 06:35:25;;;;;;;6.90;2.97;;;3.30;99.90;;;;;;5059490;28;20067;-67
2023/04/05 06:37:51;;;;;;;7.25;2.90;;;3.40;99.90;;;;;;5060726;28;20037;-71
2023/04/05 06:40:17;;;;;;;5.25;3.40;;;3.60;99.90;;;;;;5060222;28;20025;-70
2023/04/05 06:42:43;;;;;;;6.15;3.45;;;3.60;99.90;;;;;;5059293;28;20033;-70
2023/04/05 06:45:10;;;;;;;6.75;2.92;;;3.70;99.90;;;;;;5060771;28;20033;-76
2023/04/05 06:47:39;;;;;;;6.75;2.92;;;3.70;99.90;;;;;;5060526;28;20025;-76
2023/04/05 06:50:07;;;;;;;9.57;3.53;;;3.80;99.90;;;;;;5059517;28;20021;-75
2023/04/05 06:52:34;;;;;;;8.60;3.03;;;3.90;99.90;;;;;;5059537;28;20025;-76
2023/04/05 06:55:00;;;;;;;8.48;3.20;;;3.90;99.90;;;;;;5059481;28;20045;-76
2023/04/05 06:57:26;;;;;;;5.35;3.20;;;3.90;99.90;;;;;;5060355;28;20021;-76
2023/04/05 06:59:52;;;;;;;6.65;3.08;;;3.90;99.90;;;;;;5060388;28;20032;-75
2023/04/05 07:02:19;;;;;;;6.78;3.10;;;3.90;99.90;;;;;;5059363;28;20021;-75
2023/04/05 07:04:45;;;;;;;5.68;2.83;;;4.00;99.90;;;;;;5059295;28;20044;-76
2023/04/05 07:07:11;;;;;;;11.88;3.20;;;4.00;99.90;;;;;;5059107;28;20029;-76
2023/04/05 07:09:37;;;;;;;4.43;3.08;;;4.10;99.90;;;;;;5060329;28;20017;-76
2023/04/05 07:12:04;;;;;;;7.55;3.35;;;4.20;99.90;;;;;;5059868;28;20108;-75
2023/04/05 07:14:32;;;;;;;10.98;3.30;;;4.20;99.90;;;;;;5059544;28;20045;-76
2023/04/05 07:16:58;;;;;;;6.72;3.22;;;4.30;99.90;;;;;;5058999;28;20025;-75
2023/04/05 07:19:23;;;;;;;5.13;3.20;;;4.40;99.90;;;;;;5058975;28;20028;-75
2023/04/05 07:21:49;;;;;;;8.23;3.60;;;4.40;99.90;;;;;;5059926;28;20033;-76
2023/04/05 07:24:15;;;;;;;8.52;3.67;;;4.50;99.90;;;;;;5059765;28;20025;-75
2023/04/05 07:26:41;;;;;;;10.55;4.10;;;4.60;99.90;;;;;;5059058;28;20036;-75
2023/04/05 07:29:09;;;;;;;7.20;3.40;;;4.70;99.90;;;;;;5059840;28;20021;-75
2023/04/05 07:31:34;;;;;;;5.78;3.15;;;4.80;99.90;;;;;;5059675;28;20084;-76
2023/04/05 07:34:00;;;;;;;7.82;4.00;;;4.80;99.90;;;;;;5058618;28;20060;-75
2023/04/05 07:36:29;;;;;;;6.13;3.38;;;4.80;99.90;;;;;;5058360;28;20139;-76
2023/04/05 07:38:58;;;;;;;5.10;3.25;;;4.90;99.90;;;;;;5059536;28;20040;-76
2023/04/05 07:41:24;;;;;;;5.80;3.08;;;5.00;99.90;;;;;;5059278;28;20031;-76
2023/04/05 07:43:50;;;;;;;7.95;3.40;;;5.10;99.90;;;;;;5059679;28;20029;-76
2023/04/05 07:46:16;;;;;;;11.05;3.50;;;5.20;99.90;;;;;;5058297;28;20032;-76
2023/04/05 07:48:41;;;;;;;11.10;3.67;;;5.30;99.90;;;;;;5058812;28;20090;-75
2023/04/05 07:51:08;;;;;;;7.97;3.40;;;5.50;99.90;;;;;;5057934;28;20021;-76
2023/04/05 07:53:35;;;;;;;7.15;3.63;;;5.60;99.90;;;;;;5058955;28;20014;-76
2023/04/05 07:56:05;;;;;;;10.00;3.78;;;5.60;99.90;;;;;;5058050;28;20029;-75
2023/04/05 07:58:31;;;;;;;7.05;3.50;;;5.60;99.90;;;;;;5057875;28;20060;-75
2023/04/05 08:01:01;;;;;;;4.95;3.28;;;5.70;99.90;;;;;;5058074;28;20025;-76
2023/04/05 08:03:27;;;;;;;5.88;3.55;;;5.70;99.90;;;;;;5058680;28;20037;-76
2023/04/05 08:05:53;;;;;;;8.70;3.88;;;5.80;99.90;;;;;;5057755;28;20075;-76
2023/04/05 08:08:18;;;;;;;10.15;3.53;;;5.70;99.90;;;;;;5058012;28;20025;-76
2023/04/05 08:10:44;;;;;;;4.38;3.22;;;5.70;99.90;;;;;;5057685;28;20032;-75
2023/04/05 08:13:09;;;;;;;6.60;3.30;;;5.80;99.90;;;;;;5057764;28;20101;-76
2023/04/05 08:15:35;;;;;;;8.15;3.08;;;6.00;99.90;;;;;;5057813;28;20029;-76
2023/04/05 08:18:01;;;;;;;5.45;3.28;;;6.00;99.90;;;;;;5057915;28;20036;-76
2023/04/05 08:20:27;;;;;;;9.05;4.15;;;6.10;99.90;;;;;;5058028;28;20032;-76
2023/04/05 08:22:52;;;;;;;8.63;3.60;;;6.20;99.90;;;;;;5058894;28;20037;-76
2023/04/05 08:25:18;;;;;;;6.28;3.40;;;6.20;99.90;;;;;;5058336;28;20052;-76
2023/04/05 08:27:43;;;;;;;6.13;3.40;;;6.30;99.90;;;;;;5057714;28;20052;-76
2023/04/05 08:30:09;;;;;;;4.07;3.05;;;6.50;99.90;;;;;;5056826;28;20029;-76
2023/04/05 08:32:35;;;;;;;5.47;2.85;;;6.60;99.90;;;;;;5058282;28;20021;-76
2023/04/05 08:35:00;;;;;;;4.70;2.72;;;6.70;99.90;;;;;;5058246;28;20025;-76
2023/04/05 08:37:26;;;;;;;6.25;3.00;;;6.80;99.90;;;;;;5058640;28;20029;-71
2023/04/05 08:39:52;;;;;;;9.15;2.55;;;6.70;99.90;;;;;;5058087;28;20108;-71
2023/04/05 08:42:28;;;;;;;4.30;2.97;;;6.90;99.90;;;;;;5058270;28;20021;-71
2023/04/05 08:44:58;;;;;;;7.88;2.90;;;7.10;99.90;;;;;;5057210;28;20021;-71
2023/04/05 08:47:24;;;;;;;3.80;2.58;;;7.20;99.90;;;;;;5057836;28;20021;-71
2023/04/05 08:49:50;;;;;;;7.47;3.15;;;7.20;99.90;;;;;;5057036;28;20017;-71
2023/04/05 08:52:15;;;;;;;5.25;3.25;;;7.30;99.90;;;;;;5057188;28;20017;-71
2023/04/05 08:54:41;;;;;;;6.70;3.60;;;7.30;99.90;;;;;;5057318;28;20053;-71
2023/04/05 08:57:07;;;;;;;4.05;3.10;;;7.30;99.90;;;;;;5057749;28;20093;-71
2023/04/05 08:59:35;;;;;;;6.20;2.95;;;7.40;99.90;;;;;;5056622;28;20029;-71
2023/04/05 09:02:03;;;;;;;6.35;3.13;;;7.50;99.90;;;;;;5057820;28;20021;-71
2023/04/05 09:04:33;;;;;;;4.45;2.65;;;7.50;99.90;;;;;;5056637;28;20040;-71
2023/04/05 09:07:02;;;;;;;3.85;2.88;;;7.50;99.90;;;;;;5057432;28;20036;-71
2023/04/05 09:09:34;;;;;;;8.02;3.13;;;7.60;99.90;;;;;;5056597;28;20021;-71
2023/04/05 09:12:02;;;;;;;;;;;7.70;99.90;;;;;;5057155;28;20025;-69
2023/04/05 09:14:29;;;;;;;6.20;4.15;;;7.80;99.90;;;;;;5056563;28;19911;-68
2023/04/05 09:16:55;;;;;;;10.02;3.05;;;7.80;99.90;;;;;;5056557;28;20063;-69
2023/04/05 09:19:20;;;;;;;5.45;2.83;;;7.70;99.90;;;;;;5056452;28;20025;-68
2023/04/05 09:22:03;;;;;;;6.55;3.05;;;7.80;99.90;;;;;;5057846;28;20111;-69
2023/04/05 09:24:32;;;;;;;6.38;3.00;;;7.90;99.90;;;;;;5056422;28;20052;-69
2023/04/05 09:27:10;;;;;;;6.68;3.00;;;8.00;99.90;;;;;;5057166;28;20032;-68
2023/04/05 09:29:37;;;;;;;5.70;3.40;;;7.90;99.90;;;;;;5056484;28;20125;-68
2023/04/05 09:32:04;;;;;;;6.35;2.88;;;7.90;99.90;;;;;;5056491;28;20071;-69
2023/04/05 09:34:31;;;;;;;7.82;3.25;;;8.20;99.90;;;;;;5056812;28;20075;-68
2023/04/05 09:36:58;;;;;;;6.85;3.28;;;8.30;99.90;;;;;;5056857;28;20024;-72
2023/04/05 09:39:28;;;;;;;4.05;2.47;;;8.20;99.90;;;;;;5056795;28;20032;-71
2023/04/05 09:42:21;;;;;;;4.68;2.75;;;8.30;99.90;;;;;;5056182;28;20036;-70
2023/04/05 09:44:55;;;;;;;7.28;3.20;;;8.60;99.90;;;;;;5055661;28;20040;-70
2023/04/05 09:47:26;;;;;;;4.22;2.97;;;8.40;99.90;;;;;;5057060;28;20024;-71
2023/04/05 09:49:52;;;;;;;6.05;3.67;;;8.40;99.90;;;;;;5057585;28;20017;-68
2023/04/05 09:52:25;;;;;;;13.18;2.90;;;8.50;99.90;;;;;;5056171;28;20108;-68
2023/04/05 09:54:55;;;;;;;4.65;3.08;;;8.70;99.90;;;;;;5056160;28;20060;-68
2023/04/05 09:57:26;;;;;;;7.60;2.78;;;8.70;99.90;;;;;;5056747;28;20025;-68
2023/04/05 09:59:52;;;;;;;6.68;3.00;;;8.80;99.90;;;;;;5057107;28;20107;-68
2023/04/05 10:02:18;;;;;;;5.88;2.78;;;9.30;99.90;;;;;;5055936;28;20056;-69
2023/04/05 10:04:45;;;;;;;5.50;2.75;;;9.40;99.90;;;;;;5056858;28;20033;-68
2023/04/05 10:07:13;;;;;;;5.03;3.03;;;9.40;99.90;;;;;;5055697;28;20075;-68
2023/04/05 10:09:44;;;;;;;5.38;2.53;;;9.50;99.90;;;;;;5055700;28;20021;-68
2023/04/05 10:12:22;;;;;;;4.72;2.60;;;9.70;99.10;;;;;;5057409;28;20029;-68
2023/04/05 10:14:48;;;;;;;5.57;2.72;;;9.70;98.20;;;;;;5056733;28;20091;-69
2023/04/05 10:17:38;;;;;;;6.95;3.33;;;9.70;98.80;;;;;;5055800;28;20021;-69
2023/04/05 10:20:13;;;;;;;11.07;3.45;;;9.50;98.60;;;;;;5056696;28;20028;-68
2023/04/05 10:23:12;;;;;;;7.00;2.88;;;9.60;99.90;;;;;;5056662;28;20039;-68
2023/04/05 10:25:53;;;;;;;3.95;2.33;;;10.10;99.90;;;;;;5055746;28;20051;-68
2023/04/05 10:28:28;;;;;;;5.43;2.60;;;10.70;99.30;;;;;;5055961;28;20021;-68
2023/04/05 10:31:17;;;;;;;5.05;3.00;;;10.80;98.10;;;;;;5056671;28;20024;-68
2023/04/05 10:33:50;;;;;;;6.00;2.70;;;10.90;95.10;;;;;;5055129;28;20033;-68
2023/04/05 10:36:18;;;;;;;4.97;2.65;;;10.90;95.60;;;;;;5056533;28;20087;-68
2023/04/05 10:39:07;;;;;;;4.30;2.60;;;10.60;95.60;;;;;;5055527;28;20041;-68
2023/04/05 10:41:46;;;;;;;3.33;2.38;;;10.50;92.60;;;;;;5055593;28;20035;-68
2023/04/05 10:44:12;;;;;;;4.90;2.85;;;10.60;92.70;;;;;;5055521;28;20091;-68
2023/04/05 10:46:40;;;;;;;5.45;2.80;;;10.80;93.60;;;;;;5056642;28;20029;-68
2023/04/05 10:49:22;;;;;;;3.63;2.17;;;11.60;94.90;;;;;;5055624;28;20079;-68
2023/04/05 10:51:47;;;;;;;11.13;2.85;;;11.90;93.10;;;;;;5056626;28;20025;-68
2023/04/05 10:54:16;;;;;;;4.25;2.63;;;12.10;88.60;;;;;;5058380;28;20017;-68
2023/04/05 10:56:42;;;;;;;4.22;2.65;;;12.00;89.10;;;;;;5060170;28;20024;-68
2023/04/05 10:59:10;;;;;;;3.22;2.38;;;12.00;91.40;;;;;;5059081;28;20032;-68
2023/04/05 11:01:37;;;;;;;8.82;2.13;;;12.20;90.00;;;;;;5059934;28;20086;-69
2023/04/05 11:04:31;;;;;;;4.57;2.53;;;12.40;86.70;;;;;;5059649;28;20026;-68
2023/04/05 11:07:11;;;;;;;3.70;2.42;;;12.60;83.80;;;;;;5058487;28;20041;-68
2023/04/05 11:09:39;;;;;;;4.35;2.53;;;12.70;81.20;;;;;;5059220;28;20017;-69
2023/04/05 11:12:04;;;;;;;8.73;2.58;;;13.10;82.00;;;;;;5059844;28;20115;-69
2023/04/05 11:14:38;;;;;;;4.68;2.40;;;13.10;82.80;;;;;;5058741;28;20061;-68
2023/04/05 11:17:22;;;;;;;3.78;2.60;;;13.10;80.10;;;;;;5058609;28;20021;-68
2023/04/05 11:19:51;;;;;;;2.92;2.17;;;13.10;76.30;;;;;;5058903;28;20025;-68
2023/04/05 11:22:29;;;;;;;5.43;3.08;;;13.30;81.10;;;;;;5059402;28;20035;-68
2023/04/05 11:25:01;;;;;;;5.07;2.38;;;12.80;74.80;;;;;;5058569;28;20107;-68
2023/04/05 11:27:39;;;;;;;3.67;2.40;;;12.90;81.30;;;;;;5059331;28;20021;-68
2023/04/05 11:30:06;;;;;;;3.00;2.50;;;13.40;77.10;;;;;;5059290;28;20017;-69
2023/04/05 11:32:42;;;;;;;8.35;2.65;;;13.10;73.90;;;;;;5059400;28;20021;-69
2023/04/05 11:35:22;;;;;;;2.60;2.17;;;13.00;74.80;;;;;;5058384;28;20021;-69
2023/04/05 11:37:59;;;;;;;5.93;2.50;;;13.30;75.60;;;;;;5059359;28;20029;-69
2023/04/05 11:40:35;;;;;;;6.57;2.60;;;13.50;74.40;;;;;;5058286;28;20033;-69
2023/04/05 11:43:06;;;;;;;4.80;2.80;;;13.10;72.10;;;;;;5058340;28;20108;-69
2023/04/05 11:45:33;;;;;;;4.87;2.40;;;13.20;75.40;;;;;;5058085;28;20049;-69
2023/04/05 11:48:03;;;;;;;7.60;2.38;;;13.80;72.60;;;;;;5057977;28;20025;-69
2023/04/05 11:50:29;;;;;;;3.72;2.55;;;14.10;71.20;;;;;;5058064;28;20044;-68
2023/04/05 11:53:10;;;;;;;6.72;2.45;;;14.20;73.10;;;;;;5057929;28;20091;-69
2023/04/05 11:55:40;;;;;;;6.45;2.65;;;14.30;72.90;;;;;;5059044;28;20051;-69
2023/04/05 11:58:13;;;;;;;4.75;2.63;;;14.10;68.90;;;;;;5058957;28;20031;-70
2023/04/05 12:00:43;;;;;;;5.43;2.75;;;14.00;69.50;;;;;;5057987;28;20021;-70
2023/04/05 12:03:13;;;;;;;8.38;3.05;;;13.70;69.80;;;;;;5057915;28;20123;-70
2023/04/05 12:05:50;;;;;;;4.90;2.67;;;13.20;69.70;;;;;;5056644;28;20025;-70
2023/04/05 12:08:16;;;;;;;5.53;2.80;;;12.80;71.10;;;;;;5058489;28;20044;-71
2023/04/05 12:10:42;;;;;;;7.72;2.20;;;12.70;71.00;;;;;;5057812;28;20025;-70
2023/04/05 12:13:08;;;;;;;5.88;2.78;;;13.00;70.80;;;;;;5057766;28;20021;-71
2023/04/05 12:15:39;;;;;;;4.78;2.55;;;13.70;70.20;;;;;;5058816;28;20029;-70
2023/04/05 12:18:11;;;;;;;3.30;2.22;;;14.00;69.50;;;;;;5063001;28;20028;-70
2023/04/05 12:20:37;;;;;;;2.88;2.30;;;14.20;67.70;;;;;;5058702;28;20047;-71
2023/04/05 12:23:03;;;;;;;4.80;2.70;;;14.70;69.80;;;;;;5057504;28;20032;-71
2023/04/05 12:25:29;;;;;;;4.97;2.47;;;15.10;71.10;;;;;;5057690;28;20025;-70
2023/04/05 12:27:54;;;;;;;4.03;2.50;;;15.10;66.60;;;;;;5058220;28;20033;-71
2023/04/05 12:30:22;;;;;;;4.75;2.47;;;15.40;65.70;;;;;;5058437;28;20048;-71
2023/04/05 12:32:55;;;;;;;6.95;2.97;;;15.20;65.10;;;;;;5057509;28;20024;-71
2023/04/05 12:35:31;;;;;;;5.13;2.80;;;14.90;64.30;;;;;;5057133;28;20020;-71
2023/04/05 12:37:58;;;;;;;4.32;2.50;;;14.60;64.60;;;;;;5057136;28;20100;-71
2023/04/05 12:40:24;;;;;;;3.85;2.28;;;15.00;65.90;;;;;;5058054;28;20033;-70
2023/04/05 12:42:50;;;;;;;7.00;2.80;;;14.90;65.10;;;;;;5057305;28;20035;-71
2023/04/05 12:45:17;;;;;;;3.78;2.42;;;15.50;68.80;;;;;;5057263;28;20025;-71
2023/04/05 12:47:56;;;;;;;4.10;2.38;;;15.90;63.90;;;;;;5056859;28;20017;-71
2023/04/05 12:50:30;;;;;;;3.55;2.38;;;16.00;64.80;;;;;;5056985;28;20079;-71
2023/04/05 12:52:58;;;;;;;2.67;2.38;;;16.30;66.60;;;;;;5058034;28;20049;-71
2023/04/05 12:55:24;;;;;;;5.40;2.83;;;16.30;64.10;;;;;;5057589;28;20029;-71
2023/04/05 12:57:52;;;;;;;4.85;2.55;;;16.60;61.90;;;;;;5057881;28;20063;-71
2023/04/05 13:00:20;;;;;;;3.10;2.17;;;16.20;61.60;;;;;;5056623;28;20032;-71
2023/04/05 13:02:49;;;;;;;4.47;2.70;;;16.50;64.50;;;;;;5057609;28;20075;-71